Time;durP1;ratioP1;P1;durP2;ratioP2;P2;SDS_P1;SDS_P2;PMS_P1;PMS_P2;Temp;Humidity;BMP_temperature;BMP_pressure;BME280_temperature;BME280_humidity;BME280_pressure;Samples;Min_cycle;Max_cycle;Signal;HPM_P1;HPM_P2
2022/05/30 00:00:52;;;;;;;;;;;;;;;9.44;69.15;97429.81;5126351;27;19919;-58
2022/05/30 00:03:20;;;;;;;;;;;;;;;9.39;69.21;97428.03;5119195;27;19952;-58
2022/05/30 00:05:50;;;;;;;;;;;;;;;9.30;69.34;97431.84;5127335;27;19991;-58
2022/05/30 00:08:19;;;;;;;;;;;;;;;9.32;69.35;97430.41;5126608;27;19930;-58
2022/05/30 00:10:47;;;;;;;;;;;;;;;9.32;69.09;97427.72;5123827;27;19968;-60
2022/05/30 00:13:15;;;;;;;;;;;;;;;9.23;69.48;97424.16;5122741;27;19978;-57
2022/05/30 00:15:43;;;;;;;;;;;;;;;9.14;69.27;97421.41;5119557;27;20187;-57
2022/05/30 00:18:12;;;;;;;;;;;;;;;9.26;69.01;97422.72;5126042;27;19927;-57
2022/05/30 00:20:43;;;;;;;;;;;;;;;9.78;67.35;97426.34;5124100;27;19923;-61
2022/05/30 00:23:13;;;;;;;;;;;;;;;9.70;66.62;97432.56;5115106;27;19964;-61
2022/05/30 00:25:41;;;;;;;;;;;;;;;9.37;67.79;97424.81;5117280;27;19919;-60
2022/05/30 00:28:09;;;;;;;;;;;;;;;8.99;69.02;97424.53;5126272;27;20050;-60
2022/05/30 00:31:01;;;;;;;;;;;;;;;8.95;69.59;97425.47;5124078;27;20301;-61
2022/05/30 00:33:30;;;;;;;;;;;;;;;9.17;68.97;97420.00;5116472;27;19919;-59
2022/05/30 00:35:58;;;;;;;;;;;;;;;9.12;68.86;97412.81;5120134;27;19923;-60
2022/05/30 00:38:28;;;;;;;;;;;;;;;9.63;66.11;97415.94;5124243;27;20371;-60
2022/05/30 00:40:57;;;;;;;;;;;;;;;9.66;65.95;97420.75;5107536;27;20357;-60
2022/05/30 00:43:25;;;;;;;;;;;;;;;9.37;66.89;97410.47;5117130;27;20435;-60
2022/05/30 00:45:54;;;;;;;;;;;;;;;9.06;67.82;97415.97;5124373;27;19919;-61
2022/05/30 00:48:23;;;;;;;;;;;;;;;8.87;68.71;97413.50;5103052;27;19973;-61
2022/05/30 00:50:52;;;;;;;;;;;;;;;8.73;68.94;97416.28;5118668;27;19919;-60
2022/05/30 00:53:21;;;;;;;;;;;;;;;8.72;69.00;97409.28;5125079;27;20386;-58
2022/05/30 00:55:55;;;;;;;;;;;;;;;8.64;68.85;97400.03;5124517;27;19924;-60
2022/05/30 00:58:23;;;;;;;;;;;;;;;8.71;68.67;97402.28;5097040;27;19924;-61
2022/05/30 01:00:50;;;;;;;;;;;;;;;8.84;68.29;97398.69;5106960;28;20278;-59
2022/05/30 01:08:56;;;;;;;;;;;;;;;8.69;68.53;97393.69;5102512;27;20022;-59
2022/05/30 01:11:25;;;;;;;;;;;;;;;8.81;67.82;97393.88;5124153;27;19930;-59
2022/05/30 01:13:53;;;;;;;;;;;;;;;9.17;66.28;97384.78;5105503;27;19926;-60
2022/05/30 01:16:22;;;;;;;;;;;;;;;9.00;66.68;97387.41;5103505;28;19973;-58
2022/05/30 01:18:52;;;;;;;;;;;;;;;9.02;66.38;97385.19;5127252;27;19976;-61
2022/05/30 01:21:41;;;;;;;;;;;;;;;8.92;67.32;97380.84;5109400;28;19919;-58
2022/05/30 01:24:14;;;;;;;;;;;;;;;8.78;67.39;97388.28;5092562;28;20247;-58
2022/05/30 01:27:09;;;;;;;;;;;;;;;8.57;67.91;97385.31;5122808;27;19965;-60
2022/05/30 01:29:39;;;;;;;;;;;;;;;8.57;67.67;97379.91;5088279;27;20013;-60
2022/05/30 01:32:07;;;;;;;;;;;;;;;8.69;66.95;97390.16;5126013;28;19919;-60
2022/05/30 01:34:35;;;;;;;;;;;;;;;8.53;67.50;97387.06;5127134;28;19920;-60
2022/05/30 01:37:03;;;;;;;;;;;;;;;8.47;67.81;97383.69;5120086;28;19927;-59
2022/05/30 01:39:35;;;;;;;;;;;;;;;8.45;67.93;97385.09;5123105;28;20330;-58
2022/05/30 01:42:04;;;;;;;;;;;;;;;8.44;68.04;97381.59;5102045;28;19966;-59
2022/05/30 01:44:32;;;;;;;;;;;;;;;8.36;68.45;97385.03;5099662;28;19919;-58
2022/05/30 01:47:02;;;;;;;;;;;;;;;8.25;68.32;97379.03;5126783;28;19963;-58
2022/05/30 01:49:30;;;;;;;;;;;;;;;8.10;69.21;97385.66;5101214;28;20015;-58
2022/05/30 01:51:58;;;;;;;;;;;;;;;8.10;69.15;97377.53;5116494;28;19923;-61
2022/05/30 01:54:27;;;;;;;;;;;;;;;8.19;69.03;97380.28;5105687;28;20043;-60
2022/05/30 01:57:13;;;;;;;;;;;;;;;8.14;69.04;97383.91;5122006;28;20040;-59
2022/05/30 02:02:53;;;;;;;;;;;;;;;8.01;68.39;97376.66;5101817;28;19919;-60
2022/05/30 02:05:49;;;;;;;;;;;;;;;8.00;68.54;97374.28;5083236;28;19947;-60
2022/05/30 02:08:21;;;;;;;;;;;;;;;8.01;68.55;97378.56;5091297;28;19974;-60
2022/05/30 02:10:49;;;;;;;;;;;;;;;8.07;68.02;97377.34;5100563;28;20302;-60
2022/05/30 02:13:18;;;;;;;;;;;;;;;8.26;67.57;97369.03;5119161;28;20036;-60
2022/05/30 02:19:00;;;;;;;;;;;;;;;8.23;66.55;97365.03;5125914;28;19930;-60
2022/05/30 02:21:34;;;;;;;;;;;;;;;8.03;67.18;97360.91;5096545;28;19942;-61
2022/05/30 02:24:02;;;;;;;;;;;;;;;8.06;67.36;97359.53;5105073;28;19926;-60
2022/05/30 02:26:30;;;;;;;;;;;;;;;7.81;68.19;97361.72;5086918;28;19957;-61
2022/05/30 02:28:58;;;;;;;;;;;;;;;8.05;67.27;97363.34;5105839;28;19984;-61
2022/05/30 02:31:27;;;;;;;;;;;;;;;8.09;67.06;97353.47;5103998;28;20363;-60
2022/05/30 02:36:45;;;;;;;;;;;;;;;8.08;67.64;97357.28;5106084;28;20223;-60
2022/05/30 02:39:15;;;;;;;;;;;;;;;8.02;67.40;97353.13;5102529;27;19959;-60
2022/05/30 02:42:04;;;;;;;;;;;;;;;7.99;66.94;97354.53;5123438;27;19919;-60
2022/05/30 02:44:35;;;;;;;;;;;;;;;7.78;68.53;97353.44;5104451;27;19919;-60
2022/05/30 02:47:03;;;;;;;;;;;;;;;7.66;68.42;97355.88;5107074;27;19919;-60
2022/05/30 02:49:31;;;;;;;;;;;;;;;7.77;67.99;97347.19;5111113;27;20075;-60
2022/05/30 02:52:00;;;;;;;;;;;;;;;8.14;66.86;97358.75;5108481;27;20014;-60
2022/05/30 02:54:30;;;;;;;;;;;;;;;7.85;67.52;97346.47;5108226;27;20287;-59
2022/05/30 02:56:58;;;;;;;;;;;;;;;7.61;68.99;97348.66;5127687;27;20372;-61
2022/05/30 02:59:28;;;;;;;;;;;;;;;7.79;68.35;97350.41;5118159;27;20324;-60
2022/05/30 03:02:05;;;;;;;;;;;;;;;7.73;68.66;97361.66;5105002;27;19920;-59
2022/05/30 03:04:33;;;;;;;;;;;;;;;7.74;68.38;97358.66;5127160;27;19926;-59
2022/05/30 03:07:10;;;;;;;;;;;;;;;7.99;67.41;97346.44;5102479;27;19924;-60
2022/05/30 03:09:38;;;;;;;;;;;;;;;7.84;67.85;97347.59;5110574;27;19919;-59
2022/05/30 03:12:17;;;;;;;;;;;;;;;8.14;66.43;97347.94;5102207;27;20018;-59
2022/05/30 03:14:45;;;;;;;;;;;;;;;7.80;67.71;97345.81;5103947;28;19920;-59
2022/05/30 03:17:14;;;;;;;;;;;;;;;7.68;68.37;97353.66;5116256;27;19934;-59
2022/05/30 03:19:46;;;;;;;;;;;;;;;7.80;67.31;97359.31;5109990;27;20273;-59
2022/05/30 03:22:16;;;;;;;;;;;;;;;7.82;67.27;97354.41;5105099;27;20026;-59
2022/05/30 03:25:09;;;;;;;;;;;;;;;8.23;65.49;97365.03;5115789;27;19923;-59
2022/05/30 03:27:41;;;;;;;;;;;;;;;8.16;65.42;97361.19;5104038;27;20401;-59
2022/05/30 03:30:10;;;;;;;;;;;;;;;7.83;66.74;97370.34;5101933;28;19927;-59
2022/05/30 03:32:41;;;;;;;;;;;;;;;8.14;65.69;97366.88;5102283;28;19923;-59
2022/05/30 03:35:09;;;;;;;;;;;;;;;7.73;66.76;97367.88;5102129;28;19924;-59
2022/05/30 03:37:42;;;;;;;;;;;;;;;7.67;67.13;97370.97;5089809;28;20018;-60
2022/05/30 03:40:26;;;;;;;;;;;;;;;7.46;68.21;97371.47;5100598;28;20244;-60
2022/05/30 03:43:23;;;;;;;;;;;;;;;7.41;68.84;97376.16;5105718;28;20002;-59
2022/05/30 03:45:51;;;;;;;;;;;;;;;7.31;69.42;97380.69;5099054;28;19997;-59
2022/05/30 03:48:20;;;;;;;;;;;;;;;7.22;68.97;97385.19;5105593;28;19919;-60
2022/05/30 03:50:48;;;;;;;;;;;;;;;7.43;68.46;97387.47;5105048;28;19924;-60
2022/05/30 03:53:18;;;;;;;;;;;;;;;7.65;67.84;97381.31;5107689;28;19932;-59
2022/05/30 03:56:11;;;;;;;;;;;;;;;7.61;67.28;97375.69;5123649;27;19927;-60
2022/05/30 03:58:41;;;;;;;;;;;;;;;7.92;66.59;97378.50;5103209;28;19930;-60
2022/05/30 04:01:13;;;;;;;;;;;;;;;7.71;67.26;97377.38;5106771;28;19924;-59
2022/05/30 04:03:42;;;;;;;;;;;;;;;7.64;67.95;97380.50;5104256;28;20018;-60
2022/05/30 04:06:10;;;;;;;;;;;;;;;7.64;67.88;97375.09;5105593;28;20359;-59
2022/05/30 04:08:42;;;;;;;;;;;;;;;7.76;67.62;97380.75;5097469;28;20363;-58
2022/05/30 04:11:30;;;;;;;;;;;;;;;7.73;67.44;97384.09;5100408;28;19934;-59
2022/05/30 04:14:03;;;;;;;;;;;;;;;7.84;66.97;97385.47;5102982;28;20452;-59
2022/05/30 04:16:51;;;;;;;;;;;;;;;8.11;66.02;97383.75;5102210;28;20432;-59
2022/05/30 04:19:18;;;;;;;;;;;;;;;7.93;66.79;97387.41;5102635;28;19965;-59
2022/05/30 04:21:46;;;;;;;;;;;;;;;8.11;65.93;97383.75;5104761;28;19920;-60
2022/05/30 04:24:23;;;;;;;;;;;;;;;8.35;65.54;97395.03;5103506;28;19935;-58
2022/05/30 04:26:59;;;;;;;;;;;;;;;8.34;66.05;97393.44;5102312;28;19920;-60
2022/05/30 04:29:27;;;;;;;;;;;;;;;8.23;66.04;97392.09;5095506;28;19926;-60
2022/05/30 04:32:19;;;;;;;;;;;;;;;8.43;65.84;97398.94;5083040;28;20384;-60
2022/05/30 04:34:47;;;;;;;;;;;;;;;8.32;65.81;97405.69;5085520;28;19977;-61
2022/05/30 04:37:16;;;;;;;;;;;;;;;7.96;67.35;97413.84;5085675;28;19920;-61
2022/05/30 04:39:48;;;;;;;;;;;;;;;7.75;68.50;97411.63;5067665;28;20356;-60
2022/05/30 04:42:41;;;;;;;;;;;;;;;8.01;67.60;97411.03;5086224;28;19935;-58
2022/05/30 04:45:28;;;;;;;;;;;;;;;8.21;67.52;97409.75;5084131;28;19920;-58
2022/05/30 04:48:14;;;;;;;;;;;;;;;8.61;66.27;97418.78;5080944;28;21031;-59
2022/05/30 04:50:43;;;;;;;;;;;;;;;8.78;65.53;97415.38;5080034;28;20348;-59
2022/05/30 04:53:13;;;;;;;;;;;;;;;8.76;65.09;97415.69;5083972;28;20344;-60
2022/05/30 04:56:01;;;;;;;;;;;;;;;9.01;64.60;97413.41;5083148;28;19920;-60
2022/05/30 04:59:00;;;;;;;;;;;;;;;8.97;64.76;97415.94;5079847;28;19928;-60
2022/05/30 05:01:30;;;;;;;;;;;;;;;8.78;65.16;97418.06;5073664;28;19920;-58
2022/05/30 05:03:59;;;;;;;;;;;;;;;9.01;64.29;97421.53;5081334;28;20383;-60
2022/05/30 05:06:27;;;;;;;;;;;;;;;8.95;64.56;97434.44;5081641;28;19920;-58
2022/05/30 05:08:56;;;;;;;;;;;;;;;8.93;64.34;97429.28;5075205;28;19920;-59
2022/05/30 05:11:37;;;;;;;;;;;;;;;8.73;65.44;97435.25;5083754;28;20288;-60
2022/05/30 05:14:24;;;;;;;;;;;;;;;8.96;64.72;97446.06;5078666;28;19927;-60
2022/05/30 05:17:21;;;;;;;;;;;;;;;8.88;65.28;97437.56;5089578;28;19973;-59
2022/05/30 05:19:49;;;;;;;;;;;;;;;9.15;65.02;97438.47;5078059;28;20357;-59
2022/05/30 05:25:26;;;;;;;;;;;;;;;8.88;65.59;97445.69;5080145;28;19927;-60
2022/05/30 05:28:15;;;;;;;;;;;;;;;9.28;64.66;97443.00;5081938;28;19936;-61
2022/05/30 05:34:04;;;;;;;;;;;;;;;9.04;64.79;97453.41;5100538;28;20330;-60
2022/05/30 05:36:32;;;;;;;;;;;;;;;9.09;65.05;97450.56;5120764;28;19926;-59
2022/05/30 05:39:00;;;;;;;;;;;;;;;9.26;64.85;97450.63;5119796;28;19964;-60
2022/05/30 05:41:47;;;;;;;;;;;;;;;9.57;63.91;97455.97;5126200;28;19924;-60
2022/05/30 05:44:17;;;;;;;;;;;;;;;9.43;64.93;97456.13;5120884;28;20018;-60
2022/05/30 05:46:46;;;;;;;;;;;;;;;9.23;65.42;97456.69;5100628;28;19919;-60
2022/05/30 05:49:17;;;;;;;;;;;;;;;9.32;64.79;97454.81;5104501;28;19920;-59
2022/05/30 05:51:45;;;;;;;;;;;;;;;9.44;64.56;97457.72;5120044;28;19969;-60
2022/05/30 05:54:14;;;;;;;;;;;;;;;9.67;64.11;97460.31;5108910;28;19927;-60
2022/05/30 05:56:43;;;;;;;;;;;;;;;9.75;64.32;97456.00;5103025;28;19928;-59
2022/05/30 05:59:25;;;;;;;;;;;;;;;9.97;63.28;97455.91;5101291;28;19919;-60
2022/05/30 06:01:53;;;;;;;;;;;;;;;9.89;63.62;97462.09;5084039;28;20335;-62
2022/05/30 06:04:22;;;;;;;;;;;;;;;10.10;62.69;97459.56;5099996;28;20263;-60
2022/05/30 06:07:17;;;;;;;;;;;;;;;10.54;60.33;97469.31;5092990;28;19927;-60
2022/05/30 06:09:59;;;;;;;;;;;;;;;10.45;60.37;97469.34;5120041;28;20007;-60
2022/05/30 06:15:34;;;;;;;;;;;;;;;10.28;61.72;97469.38;5126343;27;19924;-60
2022/05/30 06:18:13;;;;;;;;;;;;;;;10.57;59.83;97467.91;5097032;27;19928;-59
2022/05/30 06:21:02;;;;;;;;;;;;;;;10.44;60.77;97466.97;5125192;27;20358;-59
2022/05/30 06:24:05;;;;;;;;;;;;;;;10.45;61.09;97463.91;5106179;27;19954;-60
2022/05/30 06:27:25;;;;;;;;;;;;;;;11.01;59.88;97467.47;5097375;27;19951;-59
2022/05/30 06:34:19;;;;;;;;;;;;;;;11.55;58.25;97473.16;5124936;27;19945;-60
2022/05/30 06:37:08;;;;;;;;;;;;;;;11.36;58.71;97466.56;5110182;27;19920;-59
2022/05/30 06:39:43;;;;;;;;;;;;;;;11.27;59.00;97469.28;5086630;27;19931;-59
2022/05/30 06:42:26;;;;;;;;;;;;;;;11.27;59.38;97467.38;5124420;27;19924;-59
2022/05/30 06:48:25;;;;;;;;;;;;;;;11.60;57.74;97469.44;5126560;27;20426;-59
2022/05/30 06:51:12;;;;;;;;;;;;;;;11.38;59.03;97477.88;5108869;27;19919;-59
2022/05/30 06:53:41;;;;;;;;;;;;;;;11.65;58.56;97466.53;5128533;27;19919;-58
2022/05/30 06:56:14;;;;;;;;;;;;;;;11.85;58.19;97470.47;5103057;27;20360;-59
2022/05/30 06:58:43;;;;;;;;;;;;;;;12.30;57.06;97475.25;5104708;27;19938;-60
2022/05/30 07:01:12;;;;;;;;;;;;;;;12.11;56.93;97472.22;5103639;27;19927;-59
2022/05/30 07:03:41;;;;;;;;;;;;;;;12.11;57.16;97477.66;5124335;27;20279;-58
2022/05/30 07:06:48;;;;;;;;;;;;;;;12.43;56.47;97485.09;5119584;27;19985;-59
2022/05/30 07:09:23;;;;;;;;;;;;;;;12.58;55.64;97481.75;5124451;27;19920;-59
2022/05/30 07:15:51;;;;;;;;;;;;;;;12.55;57.24;97476.97;5118030;27;19961;-57
2022/05/30 07:18:26;;;;;;;;;;;;;;;12.82;56.97;97486.50;5102688;27;20014;-58
2022/05/30 07:20:57;;;;;;;;;;;;;;;12.95;56.22;97492.00;5106513;27;19942;-58
2022/05/30 07:23:54;;;;;;;;;;;;;;;12.89;55.50;97491.41;5050878;27;19932;-58
2022/05/30 07:26:54;;;;;;;;;;;;;;;12.78;55.91;97495.66;5126539;27;20018;-58
2022/05/30 07:29:41;;;;;;;;;;;;;;;13.17;54.62;97488.06;5122122;27;19938;-58
2022/05/30 07:32:37;;;;;;;;;;;;;;;13.67;52.43;97487.00;5120189;27;19941;-60
2022/05/30 07:35:24;;;;;;;;;;;;;;;13.26;54.94;97486.03;5114557;27;20285;-58
2022/05/30 07:41:30;;;;;;;;;;;;;;;13.30;54.64;97484.25;5099430;27;20252;-58
2022/05/30 07:44:22;;;;;;;;;;;;;;;13.13;55.45;97485.22;5108288;27;19968;-57
2022/05/30 07:50:27;;;;;;;;;;;;;;;13.13;54.73;97487.94;5119409;27;20041;-58
2022/05/30 07:53:13;;;;;;;;;;;;;;;13.18;54.70;97487.72;5113333;27;19919;-59
2022/05/30 07:56:14;;;;;;;;;;;;;;;13.19;51.89;97488.50;5122845;27;20345;-58
2022/05/30 07:58:44;;;;;;;;;;;;;;;13.09;52.13;97489.75;5100356;27;19967;-60
2022/05/30 08:01:14;;;;;;;;;;;;;;;13.54;52.20;97492.47;5107046;27;20363;-58
2022/05/30 08:03:44;;;;;;;;;;;;;;;13.47;51.33;97483.22;5099313;27;20426;-58
2022/05/30 08:06:31;;;;;;;;;;;;;;;13.37;50.39;97489.94;5123159;27;20442;-58
2022/05/30 08:09:19;;;;;;;;;;;;;;;13.33;50.83;97492.56;5121230;27;19931;-58
2022/05/30 08:12:08;;;;;;;;;;;;;;;13.80;51.23;97486.66;5121973;27;20320;-58
2022/05/30 08:14:50;;;;;;;;;;;;;;;13.74;51.55;97487.22;5117647;27;20022;-58
2022/05/30 08:17:19;;;;;;;;;;;;;;;13.77;49.80;97487.31;5099881;27;19927;-58
2022/05/30 08:19:47;;;;;;;;;;;;;;;13.87;48.36;97491.53;5103830;27;19936;-58
2022/05/30 08:22:22;;;;;;;;;;;;;;;14.20;46.54;97490.56;5101991;27;20447;-58
2022/05/30 08:24:52;;;;;;;;;;;;;;;14.52;47.38;97492.34;5100560;28;19920;-58
2022/05/30 08:27:23;;;;;;;;;;;;;;;14.62;46.71;97489.09;5102260;27;19923;-59
2022/05/30 08:29:56;;;;;;;;;;;;;;;14.89;46.23;97490.25;5100601;27;20338;-58
2022/05/30 08:32:25;;;;;;;;;;;;;;;14.85;46.65;97488.53;5116032;27;20390;-59
2022/05/30 08:35:29;;;;;;;;;;;;;;;14.63;45.74;97490.69;4998433;28;20339;-58
2022/05/30 08:37:58;;;;;;;;;;;;;;;14.64;46.06;97488.75;5083198;27;19975;-59
2022/05/30 08:43:44;;;;;;;;;;;;;;;15.10;42.91;97481.81;5104737;27;19951;-58
2022/05/30 08:46:34;;;;;;;;;;;;;;;15.38;41.59;97481.72;5104927;27;19920;-58
2022/05/30 08:49:09;;;;;;;;;;;;;;;15.13;42.99;97483.84;5102938;28;19928;-58
2022/05/30 08:51:45;;;;;;;;;;;;;;;15.32;42.80;97472.19;5102610;27;19923;-58
2022/05/30 08:54:16;;;;;;;;;;;;;;;15.09;43.91;97466.53;5113805;27;19930;-58
2022/05/30 08:57:00;;;;;;;;;;;;;;;15.28;43.32;97471.31;5105535;27;20026;-58
2022/05/30 08:59:54;;;;;;;;;;;;;;;15.62;42.79;97478.03;5101881;27;19927;-58
2022/05/30 09:02:24;;;;;;;;;;;;;;;15.75;41.24;97478.75;5121169;27;19919;-58
2022/05/30 09:05:27;;;;;;;;;;;;;;;15.46;42.84;97475.31;5099072;27;19920;-58
2022/05/30 09:08:40;;;;;;;;;;;;;;;15.33;42.66;97470.25;5101465;27;19919;-58
2022/05/30 09:11:35;;;;;;;;;;;;;;;15.51;43.25;97479.72;5073224;27;19926;-58
2022/05/30 09:14:12;;;;;;;;;;;;;;;15.81;41.37;97465.56;5097034;28;20054;-58
2022/05/30 09:16:45;;;;;;;;;;;;;;;15.84;41.60;97471.13;5085961;27;20409;-59
2022/05/30 09:19:17;;;;;;;;;;;;;;;15.97;41.64;97469.06;5118097;27;19990;-58
2022/05/30 09:21:46;;;;;;;;;;;;;;;15.93;40.94;97469.00;5109070;27;19927;-58
2022/05/30 09:24:16;;;;;;;;;;;;;;;16.26;39.95;97464.22;5099637;27;20006;-59
2022/05/30 09:26:44;;;;;;;;;;;;;;;16.44;38.95;97466.16;5124962;27;20007;-58
2022/05/30 09:29:20;;;;;;;;;;;;;;;16.02;40.49;97477.00;5120908;27;19924;-59
2022/05/30 09:32:10;;;;;;;;;;;;;;;16.07;40.94;97484.16;5119219;27;20031;-58
2022/05/30 09:34:46;;;;;;;;;;;;;;;16.05;40.81;97475.50;5118769;28;20275;-57
2022/05/30 09:37:33;;;;;;;;;;;;;;;16.29;40.45;97464.28;5121917;28;19927;-58
2022/05/30 09:40:10;;;;;;;;;;;;;;;16.02;40.14;97471.53;5097982;28;19919;-58
2022/05/30 09:42:49;;;;;;;;;;;;;;;15.87;40.89;97472.34;5097364;28;19969;-58
2022/05/30 09:45:25;;;;;;;;;;;;;;;15.91;40.90;97470.50;5104814;28;19984;-58
2022/05/30 09:48:06;;;;;;;;;;;;;;;15.52;41.36;97466.81;5127667;27;19927;-58
2022/05/30 09:50:43;;;;;;;;;;;;;;;15.58;41.24;97468.94;5111815;27;20240;-58
2022/05/30 09:53:41;;;;;;;;;;;;;;;15.28;40.06;97465.84;5124613;27;20379;-58
2022/05/30 09:56:10;;;;;;;;;;;;;;;14.80;40.94;97469.66;5110980;27;19951;-58
2022/05/30 09:58:41;;;;;;;;;;;;;;;14.68;41.41;97460.38;5107726;27;20256;-58
2022/05/30 10:01:49;;;;;;;;;;;;;;;15.17;40.09;97460.09;5110418;27;19926;-59
2022/05/30 10:04:23;;;;;;;;;;;;;;;15.26;38.10;97461.88;5105654;27;19929;-60
2022/05/30 10:07:03;;;;;;;;;;;;;;;15.40;37.43;97462.25;5107478;27;19919;-60
2022/05/30 10:09:41;;;;;;;;;;;;;;;15.73;36.66;97463.81;5104066;27;19946;-60
2022/05/30 10:12:15;;;;;;;;;;;;;;;15.73;35.98;97461.09;5105379;27;20630;-60
2022/05/30 10:15:29;;;;;;;;;;;;;;;16.21;32.92;97463.34;5100546;27;19934;-60
2022/05/30 10:18:27;;;;;;;;;;;;;;;16.26;34.12;97459.53;5109221;27;20014;-61
2022/05/30 10:21:17;;;;;;;;;;;;;;;16.31;36.96;97458.47;5105805;27;19920;-57
2022/05/30 10:31:15;;;;;;;;;;;;;;;17.04;34.93;97463.03;5127089;27;19926;-58
2022/05/30 10:34:29;;;;;;;;;;;;;;;16.94;34.96;97455.44;5097431;28;20306;-57
2022/05/30 10:37:01;;;;;;;;;;;;;;;16.96;34.97;97453.91;5100129;28;20376;-57
2022/05/30 10:39:35;;;;;;;;;;;;;;;16.75;34.56;97454.28;5103832;28;19985;-60
2022/05/30 10:42:05;;;;;;;;;;;;;;;16.54;35.10;97451.09;5115326;27;19946;-60
2022/05/30 10:47:33;;;;;;;;;;;;;;;16.80;34.39;97455.16;5102363;28;19927;-57
2022/05/30 10:50:04;;;;;;;;;;;;;;;16.85;34.75;97460.34;5102796;28;19924;-57
2022/05/30 10:52:47;;;;;;;;;;;;;;;16.86;34.58;97457.22;5096615;28;19931;-57
2022/05/30 10:55:19;;;;;;;;;;;;;;;17.11;33.40;97465.94;5083374;28;20030;-57
2022/05/30 10:57:51;;;;;;;;;;;;;;;17.04;34.06;97460.28;5092740;28;19932;-57
2022/05/30 11:00:21;;;;;;;;;;;;;;;16.96;34.09;97453.09;5099982;28;20352;-58
2022/05/30 11:02:58;;;;;;;;;;;;;;;17.17;33.43;97458.97;5100754;28;20343;-57
2022/05/30 11:05:28;;;;;;;;;;;;;;;16.21;35.75;97460.63;5093489;28;19920;-59
2022/05/30 11:08:02;;;;;;;;;;;;;;;15.99;36.83;97466.78;5092970;28;19967;-58
2022/05/30 11:10:58;;;;;;;;;;;;;;;15.87;37.39;97470.44;5100526;28;19920;-58
2022/05/30 11:13:33;;;;;;;;;;;;;;;15.96;37.38;97472.97;5113594;27;19926;-58
2022/05/30 11:16:31;;;;;;;;;;;;;;;16.20;34.45;97467.25;5096237;28;19924;-58
2022/05/30 11:19:25;;;;;;;;;;;;;;;15.91;35.04;97467.75;5100948;28;20269;-58
2022/05/30 11:22:13;;;;;;;;;;;;;;;16.28;34.40;97461.91;5100381;28;19920;-58
2022/05/30 11:24:42;;;;;;;;;;;;;;;16.11;35.46;97460.38;5102437;28;20022;-58
2022/05/30 11:30:17;;;;;;;;;;;;;;;16.86;33.84;97461.94;5103706;28;20488;-58
2022/05/30 11:33:01;;;;;;;;;;;;;;;16.93;32.41;97467.53;5103040;28;20018;-58
2022/05/30 11:35:37;;;;;;;;;;;;;;;16.66;34.22;97450.94;5106797;28;19976;-58
2022/05/30 11:38:17;;;;;;;;;;;;;;;16.87;33.34;97458.03;5093832;28;19971;-58
2022/05/30 11:41:15;;;;;;;;;;;;;;;16.93;33.27;97459.31;5103353;28;20350;-58
2022/05/30 11:43:44;;;;;;;;;;;;;;;17.33;31.86;97461.59;5102255;28;19985;-58
2022/05/30 11:46:16;;;;;;;;;;;;;;;17.39;32.55;97456.59;5099132;28;20240;-59
2022/05/30 11:48:45;;;;;;;;;;;;;;;17.61;32.32;97452.25;5103087;28;20324;-59
2022/05/30 11:51:16;;;;;;;;;;;;;;;17.63;34.14;97450.72;5104133;28;19924;-60
2022/05/30 11:53:57;;;;;;;;;;;;;;;17.67;31.69;97450.75;5103492;28;19933;-59
2022/05/30 11:56:26;;;;;;;;;;;;;;;17.74;31.76;97459.16;5105594;28;19998;-57
2022/05/30 11:59:02;;;;;;;;;;;;;;;17.73;33.25;97452.84;5102581;28;19930;-57
2022/05/30 12:01:30;;;;;;;;;;;;;;;17.71;33.39;97455.16;5097997;28;20019;-56
2022/05/30 12:04:15;;;;;;;;;;;;;;;17.78;33.64;97455.28;5099164;28;20337;-58
2022/05/30 12:06:57;;;;;;;;;;;;;;;17.73;33.89;97454.81;5104780;28;20368;-57
2022/05/30 12:09:29;;;;;;;;;;;;;;;17.71;33.65;97460.66;5107074;28;19947;-58
2022/05/30 12:12:13;;;;;;;;;;;;;;;17.95;33.47;97450.41;5103413;28;19927;-57
2022/05/30 12:14:49;;;;;;;;;;;;;;;18.17;31.37;97460.56;5101139;28;19923;-57
2022/05/30 12:17:23;;;;;;;;;;;;;;;18.28;32.36;97455.22;5099336;28;19923;-57
2022/05/30 12:25:43;;;;;;;;;;;;;;;17.97;31.13;97457.16;5067754;28;19920;-58
2022/05/30 12:28:26;;;;;;;;;;;;;;;17.64;30.80;97466.03;5095502;28;19919;-57
2022/05/30 12:34:14;;;;;;;;;;;;;;;17.60;32.21;97470.69;5076436;28;19920;-57
2022/05/30 12:36:47;;;;;;;;;;;;;;;17.45;31.59;97460.63;5066196;28;19931;-57
2022/05/30 12:39:34;;;;;;;;;;;;;;;17.77;31.36;97464.69;5080250;28;19985;-57
2022/05/30 12:42:08;;;;;;;;;;;;;;;17.92;30.38;97457.47;5073066;28;19928;-56
2022/05/30 12:44:49;;;;;;;;;;;;;;;17.87;32.10;97470.72;5075691;28;19921;-57
2022/05/30 12:47:20;;;;;;;;;;;;;;;18.02;31.46;97458.78;5076557;28;20272;-56
2022/05/30 12:49:49;;;;;;;;;;;;;;;17.84;31.74;97458.50;5076381;28;19925;-57
2022/05/30 12:52:18;;;;;;;;;;;;;;;17.71;31.87;97470.84;5076214;28;19920;-57
2022/05/30 12:55:01;;;;;;;;;;;;;;;17.67;32.61;97465.28;5073644;28;20996;-57
2022/05/30 12:57:37;;;;;;;;;;;;;;;17.67;30.85;97459.00;5070836;28;19931;-58
2022/05/30 13:00:14;;;;;;;;;;;;;;;17.59;31.62;97457.31;5074933;28;19927;-57
2022/05/30 13:03:13;;;;;;;;;;;;;;;17.67;31.35;97462.53;5074563;28;20031;-57
2022/05/30 13:05:46;;;;;;;;;;;;;;;17.56;31.27;97467.06;5082627;28;19940;-57
2022/05/30 13:08:33;;;;;;;;;;;;;;;17.58;32.16;97467.53;5079897;28;19924;-57
2022/05/30 13:11:01;;;;;;;;;;;;;;;17.28;32.17;97467.41;5080086;28;19920;-57
2022/05/30 13:13:34;;;;;;;;;;;;;;;17.24;32.24;97472.81;5080162;28;20374;-57
2022/05/30 13:16:06;;;;;;;;;;;;;;;17.51;31.40;97476.41;5083183;28;19978;-57
2022/05/30 13:18:35;;;;;;;;;;;;;;;17.63;31.24;97477.38;5081127;28;19966;-58
2022/05/30 13:21:10;;;;;;;;;;;;;;;17.83;31.20;97473.41;5071509;28;19946;-58
2022/05/30 13:23:38;;;;;;;;;;;;;;;18.19;29.96;97480.22;5074868;28;20275;-58
2022/05/30 13:26:06;;;;;;;;;;;;;;;18.32;31.10;97467.84;5080423;28;19920;-58
2022/05/30 13:28:35;;;;;;;;;;;;;;;18.50;30.29;97475.53;5074909;28;20443;-58
2022/05/30 13:31:28;;;;;;;;;;;;;;;18.38;30.36;97471.06;5082716;28;20057;-58
2022/05/30 13:34:00;;;;;;;;;;;;;;;18.13;30.39;97470.72;5077288;28;21174;-58
2022/05/30 13:36:29;;;;;;;;;;;;;;;18.09;30.54;97475.38;5077238;28;19927;-58
2022/05/30 13:38:58;;;;;;;;;;;;;;;18.10;30.07;97476.16;5075751;28;19921;-58
2022/05/30 13:41:28;;;;;;;;;;;;;;;18.24;29.24;97481.88;5072143;28;20077;-58
2022/05/30 13:44:09;;;;;;;;;;;;;;;17.92;29.82;97478.66;5085650;28;19928;-58
2022/05/30 13:46:45;;;;;;;;;;;;;;;17.84;30.93;97480.50;5077567;28;19931;-57
2022/05/30 13:49:14;;;;;;;;;;;;;;;17.75;31.18;97478.03;5086665;28;20372;-57
2022/05/30 13:51:44;;;;;;;;;;;;;;;17.62;31.15;97484.03;5077770;28;20250;-58
2022/05/30 13:54:12;;;;;;;;;;;;;;;17.64;31.52;97482.53;5076906;28;19965;-58
2022/05/30 13:56:42;;;;;;;;;;;;;;;17.77;30.83;97485.88;5070009;28;19920;-58
2022/05/30 13:59:16;;;;;;;;;;;;;;;17.87;31.33;97488.00;5080556;28;20244;-59
2022/05/30 14:01:44;;;;;;;;;;;;;;;17.84;31.57;97490.69;5077407;28;20048;-58
2022/05/30 14:04:15;;;;;;;;;;;;;;;17.67;31.82;97495.50;5081925;28;20129;-59
2022/05/30 14:06:45;;;;;;;;;;;;;;;17.48;31.76;97488.16;5079286;28;19921;-57
2022/05/30 14:09:14;;;;;;;;;;;;;;;17.73;32.05;97491.31;5075389;28;19935;-58
2022/05/30 14:11:43;;;;;;;;;;;;;;;17.66;31.98;97495.88;5082230;28;20526;-58
2022/05/30 14:14:12;;;;;;;;;;;;;;;17.65;31.31;97499.81;5075874;28;20415;-57
2022/05/30 14:16:41;;;;;;;;;;;;;;;17.61;32.14;97496.19;5080059;28;20341;-58
2022/05/30 14:19:10;;;;;;;;;;;;;;;17.55;31.81;97496.50;5078691;28;19924;-57
2022/05/30 14:21:40;;;;;;;;;;;;;;;17.72;32.36;97494.41;5077285;28;20246;-57
2022/05/30 14:24:17;;;;;;;;;;;;;;;17.96;31.58;97487.75;5079950;28;19920;-57
2022/05/30 14:26:45;;;;;;;;;;;;;;;17.87;31.26;97487.22;5079406;28;20025;-57
2022/05/30 14:29:17;;;;;;;;;;;;;;;17.92;31.52;97492.41;5077311;28;19932;-59
2022/05/30 14:31:45;;;;;;;;;;;;;;;17.85;31.57;97484.06;5083106;28;20038;-59
2022/05/30 14:34:14;;;;;;;;;;;;;;;17.73;31.29;97488.56;5097930;28;20346;-57
2022/05/30 14:36:43;;;;;;;;;;;;;;;17.86;31.85;97489.19;5105185;28;20314;-58
2022/05/30 14:39:21;;;;;;;;;;;;;;;17.95;31.56;97488.91;5094877;28;19920;-58
2022/05/30 14:41:54;;;;;;;;;;;;;;;17.85;32.33;97497.81;5100802;28;20336;-57
2022/05/30 14:45:15;;;;;;;;;;;;;;;18.12;32.16;97493.88;5103554;28;19927;-57